createdAt,value
2022-11-24T00:02:20.534Z,5.90
2022-11-24T00:04:48.468Z,4.00
2022-11-24T00:09:44.546Z,4.28
2022-11-24T00:12:12.202Z,4.68
2022-11-24T00:14:39.569Z,4.38
2022-11-24T00:17:06.980Z,5.47
2022-11-24T00:19:34.361Z,4.45
2022-11-24T00:22:01.743Z,5.50
2022-11-24T00:24:29.118Z,4.50
2022-11-24T00:26:57.819Z,4.50
2022-11-24T00:29:25.280Z,4.25
2022-11-24T00:31:52.646Z,3.60
2022-11-24T00:34:20.016Z,3.53
2022-11-24T00:36:47.398Z,5.45
2022-11-24T00:39:15.536Z,4.13
2022-11-24T00:41:43.312Z,5.07
2022-11-24T00:44:12.082Z,4.35
2022-11-24T00:46:39.541Z,3.85
2022-11-24T00:49:07.039Z,3.53
2022-11-24T00:51:34.435Z,4.28
2022-11-24T00:54:02.052Z,4.30
2022-11-24T00:56:29.961Z,4.15
2022-11-24T01:01:26.870Z,4.60
2022-11-24T01:03:55.167Z,3.90
2022-11-24T01:06:23.679Z,4.45
2022-11-24T01:08:51.297Z,3.85
2022-11-24T01:11:20.092Z,3.45
2022-11-24T01:13:50.155Z,5.07
2022-11-24T01:16:18.532Z,4.60
2022-11-24T01:18:47.377Z,3.90
2022-11-24T01:21:15.581Z,3.90
2022-11-24T01:23:43.413Z,3.78
2022-11-24T01:26:12.102Z,3.42
2022-11-24T01:28:44.892Z,4.03
2022-11-24T01:31:14.375Z,4.40
2022-11-24T01:33:41.812Z,4.60
2022-11-24T01:36:10.608Z,3.53
2022-11-24T01:38:38.026Z,4.88
2022-11-24T01:41:06.973Z,3.15
2022-11-24T01:43:34.733Z,3.45
2022-11-24T01:46:06.761Z,3.78
2022-11-24T01:48:37.048Z,3.22
2022-11-24T01:51:09.017Z,3.83
2022-11-24T01:53:38.152Z,3.67
2022-11-24T01:56:06.329Z,4.03
2022-11-24T01:58:35.195Z,3.75
2022-11-24T02:01:02.699Z,3.20
2022-11-24T02:03:36.211Z,5.13
2022-11-24T02:06:05.133Z,4.65
2022-11-24T02:08:35.869Z,4.53
2022-11-24T02:11:05.328Z,4.03
2022-11-24T02:13:33.163Z,4.25
2022-11-24T02:16:00.770Z,4.13
2022-11-24T02:18:28.207Z,4.07
2022-11-24T02:20:56.214Z,3.97
2022-11-24T02:25:55.837Z,3.70
2022-11-24T02:28:25.308Z,4.05
2022-11-24T02:30:52.803Z,3.97
2022-11-24T02:33:21.408Z,3.38
2022-11-24T02:35:48.781Z,4.25
2022-11-24T02:38:16.130Z,3.50
2022-11-24T02:40:45.305Z,5.10
2022-11-24T02:43:14.201Z,4.60
2022-11-24T02:45:42.921Z,4.38
2022-11-24T02:48:10.337Z,4.65
2022-11-24T02:50:38.005Z,4.00
2022-11-24T02:53:05.409Z,4.53
2022-11-24T02:55:32.878Z,4.00
2022-11-24T02:58:00.215Z,5.75
2022-11-24T03:00:27.591Z,3.25
2022-11-24T03:02:56.397Z,3.92
2022-11-24T03:05:23.817Z,3.70
2022-11-24T03:07:51.235Z,3.85
2022-11-24T03:10:18.691Z,3.28
2022-11-24T03:12:46.283Z,3.95
2022-11-24T03:15:13.676Z,4.03
2022-11-24T03:17:41.068Z,4.80
2022-11-24T03:20:10.843Z,4.00
2022-11-24T03:22:38.242Z,4.82
2022-11-24T03:25:06.153Z,3.60
2022-11-24T03:30:00.872Z,4.55
2022-11-24T03:32:28.261Z,3.85
2022-11-24T03:34:56.093Z,3.85
2022-11-24T03:37:24.774Z,4.03
2022-11-24T03:39:52.131Z,3.53
2022-11-24T03:42:19.499Z,4.65
2022-11-24T03:44:46.877Z,3.80
2022-11-24T03:47:14.270Z,5.50
2022-11-24T03:49:42.247Z,4.25
2022-11-24T03:54:38.312Z,3.72
2022-11-24T03:57:05.680Z,4.25
2022-11-24T03:59:33.056Z,5.22
2022-11-24T04:02:00.493Z,3.78
2022-11-24T04:04:27.918Z,3.70
2022-11-24T04:06:55.351Z,3.47
2022-11-24T04:09:22.891Z,3.60
2022-11-24T04:12:09.368Z,4.20
2022-11-24T04:14:37.117Z,4.38
2022-11-24T04:17:05.052Z,4.38
2022-11-24T04:19:32.404Z,5.07
2022-11-24T04:21:59.787Z,3.75
2022-11-24T04:24:27.151Z,4.40
2022-11-24T04:26:55.892Z,3.80
2022-11-24T04:29:23.277Z,5.28
2022-11-24T04:31:50.715Z,4.30
2022-11-24T04:34:18.175Z,3.95
2022-11-24T04:36:45.584Z,3.20
2022-11-24T04:39:23.942Z,5.18
2022-11-24T04:41:53.607Z,4.40
2022-11-24T04:44:22.348Z,3.90
2022-11-24T04:46:49.784Z,4.55
2022-11-24T04:49:17.241Z,4.13
2022-11-24T04:51:44.631Z,3.97
2022-11-24T04:54:12.976Z,4.68
2022-11-24T04:56:40.671Z,3.97
2022-11-24T04:59:08.748Z,4.93
2022-11-24T05:01:37.658Z,4.43
2022-11-24T05:04:05.295Z,6.07
2022-11-24T05:06:33.190Z,5.78
2022-11-24T05:09:00.580Z,5.47
2022-11-24T05:11:27.022Z,5.00
2022-11-24T05:13:54.454Z,4.15
2022-11-24T05:16:21.891Z,4.15
2022-11-24T05:18:50.570Z,5.18
2022-11-24T05:21:17.972Z,6.38
2022-11-24T05:23:45.640Z,8.93
2022-11-24T05:26:13.093Z,5.55
2022-11-24T05:28:40.467Z,4.75
2022-11-24T05:31:09.163Z,4.85
2022-11-24T05:33:36.934Z,6.50
2022-11-24T05:36:07.007Z,5.28
2022-11-24T05:38:34.755Z,5.60
2022-11-24T05:41:02.483Z,6.55
2022-11-24T05:43:30.021Z,4.80
2022-11-24T05:45:59.819Z,7.20
2022-11-24T05:48:27.314Z,6.78
2022-11-24T05:50:55.788Z,6.30
2022-11-24T05:53:25.615Z,5.78
2022-11-24T05:55:52.963Z,5.78
2022-11-24T05:58:20.419Z,4.68
2022-11-24T06:00:47.937Z,4.80
2022-11-24T06:03:15.473Z,4.50
2022-11-24T06:05:48.556Z,5.05
2022-11-24T06:08:16.237Z,4.10
2022-11-24T06:10:46.919Z,4.40
2022-11-24T06:13:14.331Z,5.13
2022-11-24T06:15:41.917Z,8.43
2022-11-24T06:18:09.316Z,5.38
2022-11-24T06:20:36.865Z,5.18
2022-11-24T06:23:04.219Z,4.43
2022-11-24T06:25:31.578Z,4.07
2022-11-24T06:28:03.598Z,5.35
2022-11-24T06:30:30.971Z,4.45
2022-11-24T06:32:58.327Z,5.38
2022-11-24T06:35:25.724Z,6.07
2022-11-24T06:37:53.108Z,5.20
2022-11-24T06:40:20.461Z,5.35
2022-11-24T06:42:50.785Z,4.13
2022-11-24T06:45:19.527Z,5.20
2022-11-24T06:47:46.982Z,5.60
2022-11-24T06:50:14.351Z,5.80
2022-11-24T06:52:41.727Z,4.70
2022-11-24T06:55:09.578Z,5.90
2022-11-24T06:57:36.999Z,6.10
2022-11-24T07:00:05.236Z,5.28
2022-11-24T07:02:34.127Z,4.10
2022-11-24T07:05:01.522Z,4.93
2022-11-24T07:07:28.948Z,4.25
2022-11-24T07:09:56.326Z,5.72
2022-11-24T07:12:24.195Z,4.47
2022-11-24T07:14:51.550Z,4.78
2022-11-24T07:17:18.903Z,4.57
2022-11-24T07:19:47.588Z,4.60
2022-11-24T07:22:14.943Z,4.47
2022-11-24T07:24:42.401Z,5.70
2022-11-24T07:27:09.782Z,4.35
2022-11-24T07:29:37.144Z,5.15
2022-11-24T07:32:05.806Z,3.85
2022-11-24T07:34:33.654Z,4.18
2022-11-24T07:39:29.927Z,4.03
2022-11-24T07:41:58.872Z,4.20
2022-11-24T07:44:26.261Z,3.55
2022-11-24T07:46:53.815Z,4.13
2022-11-24T07:49:21.186Z,4.05
2022-11-24T07:51:48.590Z,3.17
2022-11-24T07:54:15.987Z,3.28
2022-11-24T07:56:44.772Z,3.38
2022-11-24T07:59:12.130Z,3.00
2022-11-24T08:01:39.590Z,2.15
2022-11-24T08:04:07.611Z,3.20
2022-11-24T08:06:39.878Z,3.13
2022-11-24T08:09:10.587Z,2.70
2022-11-24T08:11:37.969Z,2.78
2022-11-24T08:14:06.814Z,2.55
2022-11-24T08:16:34.268Z,2.53
2022-11-24T08:19:01.706Z,3.47
2022-11-24T08:21:29.109Z,2.80
2022-11-24T08:23:56.917Z,2.45
2022-11-24T08:26:25.157Z,2.45
2022-11-24T08:28:54.248Z,2.08
2022-11-24T08:31:23.123Z,3.63
2022-11-24T08:33:50.557Z,2.55
2022-11-24T08:36:18.957Z,1.95
2022-11-24T08:38:46.869Z,1.60
2022-11-24T08:43:41.544Z,1.90
2022-11-24T08:46:10.715Z,1.55
2022-11-24T08:48:39.463Z,2.35
2022-11-24T08:51:07.986Z,1.65
2022-11-24T08:53:35.456Z,2.58
2022-11-24T08:56:03.503Z,2.22
2022-11-24T08:58:30.970Z,1.90
2022-11-24T09:01:04.683Z,2.10
2022-11-24T09:03:32.332Z,2.05
2022-11-24T09:06:01.007Z,1.90
2022-11-24T09:08:29.914Z,1.63
2022-11-24T09:10:59.850Z,1.83
2022-11-24T09:13:27.307Z,1.52
2022-11-24T09:15:54.712Z,1.73
2022-11-24T09:18:25.181Z,1.73
2022-11-24T09:20:58.191Z,2.88
2022-11-24T09:23:27.539Z,2.08
2022-11-24T09:25:55.019Z,1.65
2022-11-24T09:28:22.381Z,1.40
2022-11-24T09:30:49.782Z,1.95
2022-11-24T09:33:17.176Z,1.85
2022-11-24T09:35:44.570Z,1.85
2022-11-24T09:38:13.344Z,1.90
2022-11-24T09:40:42.244Z,1.58
2022-11-24T09:43:13.367Z,2.50
2022-11-24T09:48:37.633Z,2.25
2022-11-24T09:51:05.352Z,2.45
2022-11-24T09:53:34.865Z,2.22
2022-11-24T09:56:10.594Z,1.88
2022-11-24T09:58:41.180Z,2.28
2022-11-24T10:01:12.645Z,2.22
2022-11-24T10:03:41.796Z,2.97
2022-11-24T10:06:15.709Z,2.65
2022-11-24T10:09:04.091Z,2.33
2022-11-24T10:11:37.923Z,2.90
2022-11-24T10:14:12.573Z,2.67
2022-11-24T10:16:46.265Z,2.50
2022-11-24T10:19:21.842Z,2.90
2022-11-24T10:21:57.469Z,2.78
2022-11-24T10:24:51.670Z,3.08
2022-11-24T10:27:22.948Z,2.67
2022-11-24T10:29:51.288Z,3.15
2022-11-24T10:32:19.951Z,3.38
2022-11-24T10:34:49.904Z,3.45
2022-11-24T10:37:20.846Z,3.25
2022-11-24T10:39:57.121Z,3.15
2022-11-24T10:42:29.173Z,3.40
2022-11-24T10:45:03.847Z,3.40
2022-11-24T10:47:31.653Z,3.15
2022-11-24T10:50:00.456Z,3.05
2022-11-24T10:52:29.390Z,3.75
2022-11-24T10:54:57.575Z,3.88
2022-11-24T10:57:30.779Z,3.45
2022-11-24T10:59:58.182Z,3.30
2022-11-24T11:02:33.247Z,3.15
2022-11-24T11:05:21.074Z,4.78
2022-11-24T11:07:49.861Z,4.03
2022-11-24T11:10:21.933Z,2.63
2022-11-24T11:12:49.376Z,4.70
2022-11-24T11:15:23.824Z,3.47
2022-11-24T11:17:54.445Z,2.92
2022-11-24T11:20:25.922Z,3.00
2022-11-24T11:22:55.844Z,5.80
2022-11-24T11:25:24.505Z,3.53
2022-11-24T11:27:52.158Z,3.97
2022-11-24T11:36:10.987Z,4.07
2022-11-24T11:38:40.746Z,3.53
2022-11-24T11:41:11.812Z,3.47
2022-11-24T11:43:40.737Z,5.85
2022-11-24T11:46:12.486Z,3.03
2022-11-24T11:48:44.080Z,3.88
2022-11-24T11:51:24.181Z,3.47
2022-11-24T11:53:59.716Z,3.13
2022-11-24T11:56:29.104Z,3.38
2022-11-24T11:59:26.531Z,3.78
2022-11-24T12:04:23.878Z,3.33
2022-11-24T12:07:01.553Z,3.13
2022-11-24T12:12:05.364Z,3.92
2022-11-24T12:14:39.496Z,2.55
2022-11-24T12:17:10.564Z,3.72
2022-11-24T12:19:46.350Z,2.70
2022-11-24T12:22:16.292Z,3.17
2022-11-24T12:24:48.048Z,3.33
2022-11-24T12:27:23.358Z,3.63
2022-11-24T12:30:04.044Z,4.00
2022-11-24T12:32:41.344Z,3.38
2022-11-24T12:35:14.267Z,3.15
2022-11-24T12:37:50.660Z,3.47
2022-11-24T12:40:24.336Z,3.03
2022-11-24T12:42:55.902Z,3.35
2022-11-24T12:45:25.806Z,2.97
2022-11-24T12:48:00.376Z,3.50
2022-11-24T12:50:29.521Z,3.13
2022-11-24T12:53:00.584Z,3.95
2022-11-24T12:55:28.668Z,4.13
2022-11-24T12:58:00.273Z,4.32
2022-11-24T13:00:31.418Z,4.22
2022-11-24T13:03:09.557Z,3.65
2022-11-24T13:05:41.498Z,3.28
2022-11-24T13:08:09.032Z,3.67
2022-11-24T13:13:28.385Z,4.15
2022-11-24T13:18:56.883Z,4.07
2022-11-24T13:21:35.682Z,3.72
2022-11-24T13:24:04.627Z,3.58
2022-11-24T13:26:35.353Z,4.22
2022-11-24T13:29:18.305Z,4.18
2022-11-24T13:31:52.574Z,3.70
2022-11-24T13:34:41.113Z,3.97
2022-11-24T13:37:31.192Z,3.75
2022-11-24T13:40:04.184Z,4.20
2022-11-24T13:42:42.801Z,4.13
2022-11-24T13:45:32.908Z,3.88
2022-11-24T13:48:01.584Z,3.85
2022-11-24T13:50:53.875Z,3.90
2022-11-24T13:53:26.415Z,3.67
2022-11-24T13:55:57.719Z,3.38
2022-11-24T13:58:28.063Z,3.95
2022-11-24T14:01:19.616Z,3.53
2022-11-24T14:06:57.228Z,5.25
2022-11-24T14:09:29.223Z,3.53
2022-11-24T14:11:59.207Z,4.55
2022-11-24T14:14:27.698Z,4.43
2022-11-24T14:17:08.262Z,3.35
2022-11-24T14:19:35.657Z,5.03
2022-11-24T14:22:04.407Z,3.58
2022-11-24T14:24:38.101Z,5.32
2022-11-24T14:27:14.421Z,4.03
2022-11-24T14:29:54.186Z,3.90
2022-11-24T14:32:22.584Z,4.18
2022-11-24T14:34:51.832Z,3.85
2022-11-24T14:37:23.826Z,3.67
2022-11-24T14:39:51.256Z,3.08
2022-11-24T14:42:20.110Z,3.78
2022-11-24T14:44:49.058Z,3.53
2022-11-24T14:47:20.123Z,3.45
2022-11-24T14:49:47.604Z,3.70
2022-11-24T14:52:16.998Z,4.00
2022-11-24T14:54:48.865Z,3.08
2022-11-24T14:57:24.144Z,4.10
2022-11-24T15:00:05.612Z,4.38
2022-11-24T15:02:39.734Z,6.78
2022-11-24T15:05:08.018Z,4.80
2022-11-24T15:07:39.967Z,4.28
2022-11-24T15:10:21.573Z,3.28
2022-11-24T15:13:00.568Z,3.72
2022-11-24T15:15:32.014Z,4.13
2022-11-24T15:18:00.592Z,4.82
2022-11-24T15:20:32.076Z,5.03
2022-11-24T15:23:13.703Z,4.88
2022-11-24T15:25:43.069Z,5.15
2022-11-24T15:28:12.123Z,4.72
2022-11-24T15:30:40.058Z,4.75
2022-11-24T15:33:13.848Z,5.10
2022-11-24T15:35:41.842Z,4.90
2022-11-24T15:38:09.837Z,3.50
2022-11-24T15:40:38.283Z,4.88
2022-11-24T15:43:17.108Z,5.10
2022-11-24T15:45:46.313Z,5.60
2022-11-24T15:48:18.077Z,4.70
2022-11-24T15:50:47.856Z,6.35
2022-11-24T15:53:17.351Z,5.20
2022-11-24T15:55:46.722Z,5.22
2022-11-24T15:58:16.240Z,5.03
2022-11-24T16:00:46.071Z,4.95
2022-11-24T16:03:45.265Z,8.60
2022-11-24T16:06:00.809Z,5.78
2022-11-24T16:08:28.274Z,5.43
2022-11-24T16:10:55.897Z,6.65
2022-11-24T16:13:25.648Z,6.63
2022-11-24T16:15:53.875Z,5.63
2022-11-24T16:18:24.643Z,5.93
2022-11-24T16:20:55.527Z,5.70
2022-11-24T16:23:23.512Z,6.93
2022-11-24T16:25:52.821Z,5.07
2022-11-24T16:30:52.180Z,4.80
2022-11-24T16:33:20.387Z,6.15
2022-11-24T16:35:49.315Z,6.00
2022-11-24T16:38:17.810Z,5.70
2022-11-24T16:40:45.794Z,5.78
2022-11-24T16:43:13.940Z,6.13
2022-11-24T16:45:45.321Z,6.68
2022-11-24T16:48:16.754Z,6.82
2022-11-24T16:50:48.144Z,6.28
2022-11-24T16:53:16.404Z,7.13
2022-11-24T16:55:45.119Z,6.45
2022-11-24T16:58:14.181Z,6.68
2022-11-24T17:00:42.241Z,6.72
2022-11-24T17:03:16.672Z,7.13
2022-11-24T17:05:47.545Z,6.75
2022-11-24T17:08:15.909Z,8.15
2022-11-24T17:10:43.403Z,7.50
2022-11-24T17:13:10.785Z,6.05
2022-11-24T17:15:45.326Z,7.40
2022-11-24T17:18:24.562Z,7.43
2022-11-24T17:20:57.663Z,7.28
2022-11-24T17:23:25.075Z,6.90
2022-11-24T17:25:52.509Z,7.50
2022-11-24T17:28:20.051Z,7.65
2022-11-24T17:30:47.422Z,7.82
2022-11-24T17:33:14.780Z,7.90
2022-11-24T17:35:42.154Z,7.63
2022-11-24T17:38:10.941Z,7.38
2022-11-24T17:40:38.305Z,6.63
2022-11-24T17:43:05.990Z,7.55
2022-11-24T17:45:33.429Z,6.97
2022-11-24T17:48:01.531Z,6.88
2022-11-24T17:50:28.926Z,7.60
2022-11-24T17:52:56.336Z,8.02
2022-11-24T17:55:25.106Z,6.43
2022-11-24T17:57:52.465Z,7.05
2022-11-24T18:00:20.134Z,7.03
2022-11-24T18:02:47.514Z,6.25
2022-11-24T18:05:14.962Z,5.07
2022-11-24T18:07:42.371Z,6.00
2022-11-24T18:10:10.079Z,5.93
2022-11-24T18:12:38.744Z,6.47
2022-11-24T18:15:06.618Z,5.53
2022-11-24T18:20:01.243Z,5.82
2022-11-24T18:22:50.414Z,6.00
2022-11-24T18:25:16.029Z,5.40
2022-11-24T18:27:44.751Z,5.70
2022-11-24T18:30:12.251Z,5.30
2022-11-24T18:32:39.615Z,4.25
2022-11-24T18:35:07.435Z,5.05
2022-11-24T18:37:36.630Z,5.07
2022-11-24T18:40:04.171Z,6.10
2022-11-24T18:42:31.553Z,4.68
2022-11-24T18:45:00.384Z,5.57
2022-11-24T18:47:27.764Z,4.72
2022-11-24T18:49:55.581Z,5.55
2022-11-24T18:52:23.009Z,7.03
2022-11-24T18:54:50.358Z,6.05
2022-11-24T18:57:17.717Z,4.07
2022-11-24T18:59:45.213Z,4.25
2022-11-24T19:02:13.936Z,4.45
2022-11-24T19:04:41.429Z,4.55
2022-11-24T19:07:08.826Z,3.83
2022-11-24T19:09:36.275Z,4.20
2022-11-24T19:12:04.190Z,3.42
2022-11-24T19:17:01.204Z,5.10
2022-11-24T19:19:33.944Z,4.88
2022-11-24T19:22:01.531Z,3.70
2022-11-24T19:24:28.892Z,3.95
2022-11-24T19:26:56.437Z,5.35
2022-11-24T19:29:23.824Z,3.67
2022-11-24T19:31:51.245Z,6.07
2022-11-24T19:34:18.726Z,4.97
2022-11-24T19:36:47.629Z,5.63
2022-11-24T19:39:15.501Z,4.38
2022-11-24T19:44:11.347Z,3.88
2022-11-24T19:46:39.727Z,4.22
2022-11-24T19:49:08.170Z,3.55
2022-11-24T19:51:36.335Z,3.53
2022-11-24T19:54:05.917Z,3.75
2022-11-24T19:56:34.897Z,4.65
2022-11-24T19:59:02.801Z,4.72
2022-11-24T20:01:31.025Z,4.20
2022-11-24T20:03:59.627Z,4.28
2022-11-24T20:06:28.024Z,3.70
2022-11-24T20:08:55.553Z,3.95
2022-11-24T20:11:24.274Z,4.25
2022-11-24T20:13:51.675Z,3.78
2022-11-24T20:16:20.028Z,4.20
2022-11-24T20:18:48.150Z,4.30
2022-11-24T20:23:43.306Z,3.42
2022-11-24T20:28:39.260Z,4.05
2022-11-24T20:31:08.010Z,3.70
2022-11-24T20:33:35.940Z,3.42
2022-11-24T20:38:31.134Z,3.33
2022-11-24T20:43:25.882Z,4.65
2022-11-24T20:45:54.672Z,4.40
2022-11-24T20:48:22.305Z,4.63
2022-11-24T20:50:51.424Z,3.28
2022-11-24T20:53:19.138Z,4.50
2022-11-24T20:55:46.527Z,3.97
2022-11-24T20:58:13.911Z,5.47
2022-11-24T21:00:41.341Z,3.95
2022-11-24T21:03:10.074Z,4.13
2022-11-24T21:05:37.416Z,3.72
2022-11-24T21:08:04.807Z,4.50
2022-11-24T21:10:32.175Z,3.53
2022-11-24T21:12:59.672Z,3.67
2022-11-24T21:15:27.352Z,4.13
2022-11-24T21:17:54.707Z,4.28
2022-11-24T21:20:23.410Z,4.32
2022-11-24T21:22:50.770Z,4.43
2022-11-24T21:25:18.133Z,4.38
2022-11-24T21:27:45.529Z,3.95
2022-11-24T21:30:13.353Z,4.25
2022-11-24T21:32:40.822Z,3.00
2022-11-24T21:35:08.427Z,3.95
2022-11-24T21:37:37.131Z,4.63
2022-11-24T21:40:04.879Z,3.90
2022-11-24T21:42:32.296Z,4.05
2022-11-24T21:45:02.454Z,4.03
2022-11-24T21:47:29.838Z,3.85
2022-11-24T21:49:57.227Z,5.57
2022-11-24T21:52:24.603Z,4.10
2022-11-24T21:54:53.394Z,4.05
2022-11-24T21:57:22.923Z,3.45
2022-11-24T21:59:50.278Z,3.72
2022-11-24T22:02:17.690Z,4.65
2022-11-24T22:04:45.104Z,3.28
2022-11-24T22:07:12.498Z,3.78
2022-11-24T22:09:39.876Z,3.88
2022-11-24T22:12:08.758Z,4.30
2022-11-24T22:14:40.151Z,5.43
2022-11-24T22:17:07.899Z,3.17
2022-11-24T22:19:35.238Z,3.95
2022-11-24T22:22:02.585Z,3.53
2022-11-24T22:24:29.957Z,3.90
2022-11-24T22:26:57.326Z,3.30
2022-11-24T22:29:26.108Z,5.40
2022-11-24T22:31:53.538Z,5.80
2022-11-24T22:34:20.955Z,4.05
2022-11-24T22:36:48.504Z,2.95
2022-11-24T22:39:16.023Z,3.28
2022-11-24T22:41:43.426Z,3.55
2022-11-24T22:44:10.812Z,3.78
2022-11-24T22:46:39.543Z,3.72
2022-11-24T22:49:06.931Z,4.38
2022-11-24T22:51:35.130Z,4.13
2022-11-24T22:54:03.475Z,3.45
2022-11-24T22:56:32.229Z,3.55
2022-11-24T22:59:00.005Z,3.88
2022-11-24T23:01:27.917Z,3.20
2022-11-24T23:06:24.697Z,3.80
2022-11-24T23:08:52.367Z,3.28
2022-11-24T23:11:20.694Z,3.80
2022-11-24T23:13:48.196Z,4.22
2022-11-24T23:16:16.710Z,3.72
2022-11-24T23:18:44.804Z,3.92
2022-11-24T23:23:40.989Z,4.05
2022-11-24T23:26:09.727Z,4.72
2022-11-24T23:28:37.333Z,3.15
2022-11-24T23:31:05.753Z,3.25
2022-11-24T23:33:33.346Z,3.80
2022-11-24T23:36:01.252Z,3.08
2022-11-24T23:40:58.902Z,3.58
2022-11-24T23:43:26.490Z,3.90
2022-11-24T23:45:54.260Z,3.17
2022-11-24T23:48:21.702Z,4.32
2022-11-24T23:50:49.089Z,3.58
2022-11-24T23:53:16.414Z,5.07
2022-11-24T23:55:43.767Z,3.28
2022-11-24T23:58:12.514Z,3.50
